Chandler, OK

23:20 CDT le 20 août 2014 (GMT -0500)
Guthrie Municipal | Change Station
CLOSE
Current Station
Aéroport
Location: Guthrie,
Altitude: 1066 ft
Stations météo à proximité

Alt. 1066 ft 35.85 °N, 97.41 °W | Updated 27 minutes ago

Clear
Ciel dégagé
84 ° F
Paraît 86 ° F
N
15
Vent Variable Vent de Sud
Gusts 23 mph

Aujourd'hui
Haut(e) -- | Bas -- ° F
--% Risque de précip.
Hier
Haut(e) -- | Bas -- ° F
Precip. -- pouce
6:50 AM 8:10 PM
Lune descendante, 17% visible
Pression 29.85 pouce
Visibilité 10.0 Miles terrestres
Nuages Ciel dégagé
indice de chaleur 86 ° F
Point de rosée 66 ° F
Humidité 55%
Précipitations 0.00 pouce
Profondeur de la couche neigeuse Non disponible.
UV 0 sur 12
Pollen 9.70 sur 12
Qualité de l'air Non disponible.
Flu Activity Non disponible.
METAR KGOK 210353Z AUTO 17013G20KT 10SM CLR 29/19 A2989 RMK AO2 SLP107 T02890189

More Conditions Fewer Conditions

Pression 29.85 pouce
Visibilité 10.0 Miles terrestres
Nuages Ciel dégagé
indice de chaleur 86 ° F
Point de rosée 66 ° F
Humidité 55%
Précipitations 0.00 pouce
Profondeur de la couche neigeuse Non disponible.
UV 0 sur 12
Pollen 9.70 sur 12
Qualité de l'air Non disponible.
Flu Activity Non disponible.
METAR KGOK 210353Z AUTO 17013G20KT 10SM CLR 29/19 A2989 RMK AO2 SLP107 T02890189

More Conditions Fewer Conditions

10-Day Weather Forecast

Almanac

Astronomie

Aug. 20, 2014 Lever Coucher
Temps réel 06:50 CDT 20:10 CDT
Crépuscule civil 06:23 CDT 20:37 CDT
Crépuscule nautique 05:51 CDT 21:09 CDT
Crépuscule astronomique 05:18 CDT 21:42 CDT
Lune 02:34 CDT (8/20) 16:53 CDT (8/20)
Durée de lumière visible 14h 13m
Longueur du jour
13h 20m
Tomorrow will be 2m 2s shorter.
Lune descendante, 17% of the Moon is Illuminated
août 21
Lune descendante
août 25
Nouveau
Sep 2
Premier quartier
Sep 8
Pleine lune
Sep 15
Dernier quartier

Extrêmes aujourd'hui

State Highs State Lows

Community

WunderPhotos

Upload Photos

1,745,852 Photos téléchargées !

Nearby

Épaisseur de neige

Station Depth Altitude
Pas de nouvelles chutes de neige

Activité sismique

Ville Distance Mag. Time & Date
Medford, Oklahoma 94 Miles terrestres 3.4 05:54 CDT
2014-08-16
Medford, Oklahoma 90 Miles terrestres 2.5 07:09 CDT
2014-08-15
Langston, Oklahoma 20 Miles terrestres 2.9 21:49 CDT
2014-08-14
Perry, Oklahoma 46 Miles terrestres 2.7 18:20 CDT
2014-08-14
Minimum magnitude displayed is 2.5.

Températures des eaux côtières

Lieu Température
Aucun rapport de station

Stations météo à proximité